createdAt,value
2023-02-13T00:01:57.323Z,99358.88
2023-02-13T00:04:23.908Z,99376.63
2023-02-13T00:06:50.391Z,99395.91
2023-02-13T00:09:16.871Z,99395.34
2023-02-13T00:11:43.326Z,99394.94
2023-02-13T00:14:09.909Z,99425.97
2023-02-13T00:16:36.568Z,99426.34
2023-02-13T00:19:03.215Z,99424.81
2023-02-13T00:21:29.682Z,99428.44
2023-02-13T00:23:56.097Z,99446.03
2023-02-13T00:26:22.563Z,99459.31
2023-02-13T00:28:49.436Z,99473.19
2023-02-13T00:31:19.889Z,99473.56
2023-02-13T00:33:47.043Z,99488.38
2023-02-13T00:36:16.611Z,99497.06
2023-02-13T00:38:43.866Z,99505.03
2023-02-13T00:41:11.072Z,99513.09
2023-02-13T00:43:37.966Z,99509.06
2023-02-13T00:46:05.114Z,99525.66
2023-02-13T00:48:33.692Z,99524.63
2023-02-13T00:51:00.961Z,99530.06
2023-02-13T00:53:27.937Z,99532.56
2023-02-13T00:55:54.600Z,99534.28
2023-02-13T00:58:21.713Z,99536.34
2023-02-13T01:00:48.304Z,99535.97
2023-02-13T01:03:18.361Z,99526.41
2023-02-13T01:05:45.689Z,99538.00
2023-02-13T01:08:15.734Z,99533.72
2023-02-13T01:10:43.687Z,99533.16
2023-02-13T01:13:10.818Z,99527.88
2023-02-13T01:15:40.852Z,99545.78
2023-02-13T01:18:07.895Z,99517.00
2023-02-13T01:20:34.439Z,99502.78
2023-02-13T01:23:00.916Z,99528.66
2023-02-13T01:25:28.302Z,99511.97
2023-02-13T01:27:54.820Z,99521.03
2023-02-13T01:30:21.265Z,99517.88
2023-02-13T01:32:48.079Z,99520.41
2023-02-13T01:35:15.631Z,99508.59
2023-02-13T01:37:43.191Z,99497.63
2023-02-13T01:40:12.880Z,99512.91
2023-02-13T01:42:39.385Z,99499.69
2023-02-13T01:45:27.252Z,99518.72
2023-02-13T01:48:31.488Z,99506.94
2023-02-13T01:51:02.893Z,99507.00
2023-02-13T01:53:53.617Z,99497.75
2023-02-13T01:56:23.022Z,99496.13
2023-02-13T01:58:53.677Z,99501.09
2023-02-13T02:01:21.973Z,99473.38
2023-02-13T02:03:55.423Z,99487.25
2023-02-13T02:06:28.431Z,99477.03
2023-02-13T02:08:57.750Z,99482.84
2023-02-13T02:11:36.510Z,99464.22
2023-02-13T02:14:03.273Z,99458.38
2023-02-13T02:16:31.423Z,99474.13
2023-02-13T02:18:57.891Z,99454.34
2023-02-13T02:21:39.707Z,99469.09
2023-02-13T02:24:12.360Z,99465.31
2023-02-13T02:27:16.466Z,99461.97
2023-02-13T02:30:01.696Z,99471.69
2023-02-13T02:32:40.760Z,99461.88
2023-02-13T02:35:28.303Z,99456.31
2023-02-13T02:38:08.468Z,99474.53
2023-02-13T02:40:43.946Z,99466.47
2023-02-13T02:43:30.542Z,99471.13
2023-02-13T02:46:12.086Z,99480.97
2023-02-13T02:49:07.973Z,99464.41
2023-02-13T02:51:55.659Z,99486.22
2023-02-13T02:54:58.912Z,99479.09
2023-02-13T02:57:51.062Z,99481.44
2023-02-13T03:00:39.389Z,99468.34
2023-02-13T03:03:33.048Z,99488.91
2023-02-13T03:06:11.124Z,99487.25
2023-02-13T03:09:09.245Z,99478.91
2023-02-13T03:12:11.408Z,99492.94
2023-02-13T03:14:37.992Z,99491.28
2023-02-13T03:17:24.792Z,99480.13
2023-02-13T03:20:19.239Z,99484.88
2023-02-13T03:22:54.692Z,99483.13
2023-02-13T03:25:34.569Z,99495.69
2023-02-13T03:28:41.414Z,99483.50
2023-02-13T03:31:13.604Z,99482.75
2023-02-13T03:34:06.007Z,99479.56
2023-02-13T03:37:13.112Z,99485.53
2023-02-13T03:39:56.543Z,99493.31
2023-02-13T03:42:35.540Z,99508.22
2023-02-13T03:45:57.118Z,99514.97
2023-02-13T03:48:47.923Z,99508.22
2023-02-13T03:51:22.531Z,99509.72
2023-02-13T03:53:55.088Z,99510.28
2023-02-13T03:56:41.686Z,99508.22
2023-02-13T03:59:17.089Z,99505.81
2023-02-13T04:01:54.650Z,99525.72
2023-02-13T04:04:48.866Z,99524.13
2023-02-13T04:07:29.631Z,99538.16
2023-02-13T04:10:03.043Z,99532.75
2023-02-13T04:12:38.940Z,99535.56
2023-02-13T04:15:31.549Z,99529.19
2023-02-13T04:18:09.635Z,99535.41
2023-02-13T04:20:38.305Z,99511.06
2023-02-13T04:23:07.332Z,99530.88
2023-02-13T04:25:35.305Z,99547.19
2023-02-13T04:28:02.265Z,99565.28
2023-02-13T04:30:28.772Z,99577.34
2023-02-13T04:32:55.255Z,99579.41
2023-02-13T04:35:22.212Z,99567.78
2023-02-13T04:37:48.669Z,99582.22
2023-02-13T04:40:15.269Z,99574.94
2023-02-13T04:42:41.852Z,99549.44
2023-02-13T04:45:09.165Z,99574.34
2023-02-13T04:47:35.706Z,99590.47
2023-02-13T04:50:02.161Z,99583.91
2023-02-13T04:52:28.791Z,99562.84
2023-02-13T04:54:55.273Z,99583.72
2023-02-13T04:57:21.689Z,99586.63
2023-02-13T04:59:48.093Z,99591.22
2023-02-13T05:02:14.553Z,99583.94
2023-02-13T05:04:41.071Z,99589.94
2023-02-13T05:07:08.154Z,99561.22
2023-02-13T05:09:34.600Z,99600.97
2023-02-13T05:12:01.127Z,99593.78
2023-02-13T05:14:27.522Z,99602.75
2023-02-13T05:16:53.943Z,99562.94
2023-02-13T05:19:20.365Z,99608.84
2023-02-13T05:22:06.102Z,99617.47
2023-02-13T05:24:32.557Z,99622.53
2023-02-13T05:26:58.988Z,99615.69
2023-02-13T05:29:25.467Z,99612.63
2023-02-13T05:31:54.173Z,99617.88
2023-02-13T05:34:22.048Z,99588.44
2023-02-13T05:36:48.663Z,99614.28
2023-02-13T05:39:15.762Z,99611.66
2023-02-13T05:41:43.711Z,99591.44
2023-02-13T05:44:10.603Z,99584.13
2023-02-13T05:46:39.369Z,99611.00
2023-02-13T05:49:06.589Z,99608.50
2023-02-13T05:51:33.079Z,99606.44
2023-02-13T05:53:59.561Z,99613.19
2023-02-13T05:56:25.982Z,99612.03
2023-02-13T05:58:53.943Z,99599.97
2023-02-13T06:01:20.787Z,99583.66
2023-02-13T06:03:47.858Z,99592.75
2023-02-13T06:06:14.910Z,99607.28
2023-02-13T06:08:41.445Z,99598.19
2023-02-13T06:11:08.788Z,99615.41
2023-02-13T06:13:35.198Z,99602.28
2023-02-13T06:16:01.739Z,99614.28
2023-02-13T06:18:28.225Z,99603.03
2023-02-13T06:20:54.661Z,99605.69
2023-02-13T06:23:21.324Z,99615.41
2023-02-13T06:25:47.956Z,99619.00
2023-02-13T06:28:14.416Z,99618.69
2023-02-13T06:30:40.922Z,99630.97
2023-02-13T06:33:07.398Z,99615.41
2023-02-13T06:35:33.843Z,99621.44
2023-02-13T06:38:00.398Z,99614.94
2023-02-13T06:40:26.922Z,99631.09
2023-02-13T06:42:53.479Z,99635.66
2023-02-13T06:45:19.913Z,99625.38
2023-02-13T06:47:48.285Z,99652.53
2023-02-13T06:50:16.465Z,99655.75
2023-02-13T06:52:51.784Z,99655.66
2023-02-13T06:55:18.808Z,99663.97
2023-02-13T06:57:45.704Z,99666.81
2023-02-13T07:00:13.968Z,99675.06
2023-02-13T07:02:41.257Z,99683.09
2023-02-13T07:05:08.081Z,99691.25
2023-02-13T07:07:36.593Z,99667.53
2023-02-13T07:10:03.314Z,99688.53
2023-02-13T07:12:29.748Z,99698.31
2023-02-13T07:14:56.250Z,99694.16
2023-02-13T07:17:22.755Z,99693.69
2023-02-13T07:19:50.551Z,99691.09
2023-02-13T07:22:17.081Z,99685.47
2023-02-13T07:24:43.891Z,99710.47
2023-02-13T07:27:10.879Z,99718.09
2023-02-13T07:29:37.393Z,99697.34
2023-02-13T07:32:04.100Z,99706.38
2023-02-13T07:34:31.866Z,99726.81
2023-02-13T07:36:58.484Z,99723.28
2023-02-13T07:39:25.118Z,99736.66
2023-02-13T07:41:52.494Z,99729.84
2023-02-13T07:46:57.805Z,99693.25
2023-02-13T07:49:25.215Z,99710.53
2023-02-13T07:51:52.006Z,99711.88
2023-02-13T07:54:18.493Z,99711.56
2023-02-13T07:56:45.015Z,99723.22
2023-02-13T07:59:11.668Z,99729.41
2023-02-13T08:01:38.592Z,99712.91
2023-02-13T08:04:05.217Z,99751.72
2023-02-13T08:06:31.698Z,99747.31
2023-02-13T08:09:17.007Z,99754.06
2023-02-13T08:11:55.899Z,99772.28
2023-02-13T08:14:27.515Z,99752.41
2023-02-13T08:16:54.630Z,99776.78
2023-02-13T08:19:21.258Z,99773.75
2023-02-13T08:21:47.692Z,99785.59
2023-02-13T08:24:14.129Z,99785.13
2023-02-13T08:26:40.537Z,99813.94
2023-02-13T08:29:08.109Z,99809.44
2023-02-13T08:31:34.801Z,99808.88
2023-02-13T08:34:01.408Z,99794.97
2023-02-13T08:36:28.173Z,99818.66
2023-02-13T08:38:54.836Z,99806.03
2023-02-13T08:41:22.311Z,99827.13
2023-02-13T08:43:50.155Z,99796.59
2023-02-13T08:46:18.022Z,99832.25
2023-02-13T08:48:44.601Z,99868.19
2023-02-13T08:51:13.403Z,99845.09
2023-02-13T08:53:40.015Z,99880.81
2023-02-13T08:56:06.805Z,99886.09
2023-02-13T08:58:33.463Z,99867.22
2023-02-13T09:00:59.906Z,99898.84
2023-02-13T09:03:26.513Z,99936.47
2023-02-13T09:05:52.970Z,99936.72
2023-02-13T09:08:19.526Z,99875.00
2023-02-13T09:10:46.478Z,99891.81
2023-02-13T09:13:12.967Z,99921.69
2023-02-13T09:15:40.788Z,99935.66
2023-02-13T09:18:08.016Z,99942.03
2023-02-13T09:20:36.093Z,99929.78
2023-02-13T09:23:03.831Z,99926.34
2023-02-13T09:25:30.391Z,99970.09
2023-02-13T09:27:56.913Z,99938.97
2023-02-13T09:30:23.892Z,99969.84
2023-02-13T09:32:52.288Z,99971.47
2023-02-13T09:35:20.275Z,99964.25
2023-02-13T09:37:47.089Z,99972.66
2023-02-13T09:40:37.100Z,99962.16
2023-02-13T09:43:44.849Z,99989.91
2023-02-13T09:46:16.165Z,100029.75
2023-02-13T09:48:46.281Z,100027.22
2023-02-13T09:51:19.286Z,100039.31
2023-02-13T09:54:06.706Z,100028.91
2023-02-13T09:56:50.387Z,100065.41
2023-02-13T09:59:41.038Z,100120.41
2023-02-13T10:02:35.904Z,100127.66
2023-02-13T10:05:31.262Z,100103.97
2023-02-13T10:08:25.262Z,100128.53
2023-02-13T10:10:58.021Z,100167.00
2023-02-13T10:13:50.654Z,100173.91
2023-02-13T10:16:21.534Z,100186.75
2023-02-13T10:19:15.989Z,100236.53
2023-02-13T10:21:57.620Z,100243.84
2023-02-13T10:24:57.420Z,100223.97
2023-02-13T10:27:26.453Z,100232.16
2023-02-13T10:30:14.636Z,100254.22
2023-02-13T10:33:18.842Z,100238.44
2023-02-13T10:36:10.068Z,100265.63
2023-02-13T10:38:58.090Z,100269.09
2023-02-13T10:41:26.435Z,100277.59
2023-02-13T10:44:13.761Z,100296.72
2023-02-13T10:47:03.956Z,100302.81
2023-02-13T10:49:42.557Z,100299.47
2023-02-13T10:52:33.054Z,100311.25
2023-02-13T10:55:33.575Z,100315.78
2023-02-13T10:58:09.754Z,100315.81
2023-02-13T11:03:28.223Z,100334.13
2023-02-13T11:05:57.489Z,100341.63
2023-02-13T11:08:33.670Z,100328.44
2023-02-13T11:11:00.814Z,100341.69
2023-02-13T11:13:30.118Z,100328.69
2023-02-13T11:16:10.308Z,100348.03
2023-02-13T11:18:39.033Z,100351.50
2023-02-13T11:21:19.878Z,100350.53
2023-02-13T11:23:54.625Z,100354.28
2023-02-13T11:26:24.366Z,100360.19
2023-02-13T11:28:55.768Z,100371.16
2023-02-13T11:31:24.028Z,100361.16
2023-02-13T11:33:50.572Z,100343.28
2023-02-13T11:36:30.018Z,100353.97
2023-02-13T11:39:21.508Z,100360.78
2023-02-13T11:41:52.354Z,100324.47
2023-02-13T11:44:32.481Z,100354.78
2023-02-13T11:47:01.289Z,100330.00
2023-02-13T11:49:32.675Z,100356.88
2023-02-13T11:52:27.873Z,100325.41
2023-02-13T11:55:05.554Z,100330.84
2023-02-13T11:57:37.434Z,100302.69
2023-02-13T12:00:31.160Z,100321.25
2023-02-13T12:02:57.698Z,100334.22
2023-02-13T12:05:27.665Z,100324.50
2023-02-13T12:08:01.979Z,100298.84
2023-02-13T12:10:31.778Z,100731.94
2023-02-13T12:13:07.276Z,101007.16
2023-02-13T12:15:36.553Z,100958.56
2023-02-13T12:18:08.868Z,100981.69
2023-02-13T12:20:51.297Z,100958.81
2023-02-13T12:23:49.269Z,101004.72
2023-02-13T12:26:31.713Z,100979.75
2023-02-13T12:29:00.903Z,100919.59
2023-02-13T12:31:34.197Z,100948.53
2023-02-13T12:34:30.892Z,100991.50
2023-02-13T12:37:19.057Z,100964.94
2023-02-13T12:40:02.704Z,101008.91
2023-02-13T12:42:54.196Z,101005.25
2023-02-13T12:45:43.632Z,100999.66
2023-02-13T12:48:39.092Z,100958.38
2023-02-13T12:51:17.777Z,100948.09
2023-02-13T12:54:15.799Z,100955.09
2023-02-13T12:57:11.594Z,100959.94
2023-02-13T12:59:54.302Z,100905.41
2023-02-13T13:02:48.411Z,100930.47
2023-02-13T13:05:30.131Z,100876.94
2023-02-13T13:08:29.198Z,100867.91
2023-02-13T13:10:58.699Z,100901.28
2023-02-13T13:13:52.821Z,100940.50
2023-02-13T13:16:38.523Z,100978.41
2023-02-13T13:19:20.377Z,101013.81
2023-02-13T13:22:05.462Z,101003.41
2023-02-13T13:24:49.136Z,100977.22
2023-02-13T13:27:37.895Z,100980.28
2023-02-13T13:30:14.434Z,101007.72
2023-02-13T13:32:43.280Z,101004.13
2023-02-13T13:35:15.575Z,101017.28
2023-02-13T13:38:25.428Z,101001.28
2023-02-13T13:41:07.999Z,101016.50
2023-02-13T13:43:53.021Z,101007.41
2023-02-13T13:46:38.304Z,101010.91
2023-02-13T13:49:26.404Z,101004.97
2023-02-13T13:51:52.837Z,100950.00
2023-02-13T13:54:22.988Z,100958.72
2023-02-13T13:57:02.166Z,100915.53
2023-02-13T13:59:34.611Z,100905.75
2023-02-13T14:02:22.031Z,100877.47
2023-02-13T14:05:10.963Z,100889.28
2023-02-13T14:07:41.413Z,100793.97
2023-02-13T14:10:26.346Z,100513.94
2023-02-13T14:12:55.571Z,100426.56
2023-02-13T14:15:34.277Z,100411.06
2023-02-13T14:18:26.745Z,100241.34
2023-02-13T14:20:58.508Z,100202.63
2023-02-13T14:23:30.863Z,100194.66
2023-02-13T14:26:18.091Z,100121.44
2023-02-13T14:28:51.212Z,100120.84
2023-02-13T14:31:28.538Z,100114.44
2023-02-13T14:34:00.622Z,100097.97
2023-02-13T14:36:33.703Z,100118.25
2023-02-13T14:39:08.165Z,100122.66
2023-02-13T14:41:50.768Z,100188.09
2023-02-13T14:44:22.810Z,100247.06
2023-02-13T14:46:52.850Z,100301.97
2023-02-13T14:49:33.828Z,100303.84
2023-02-13T14:52:05.244Z,100297.69
2023-02-13T14:54:57.795Z,100313.00
2023-02-13T14:57:34.506Z,100304.06
2023-02-13T15:00:24.816Z,100310.78
2023-02-13T15:03:01.479Z,100315.97
2023-02-13T15:05:33.895Z,100320.78
2023-02-13T15:08:16.277Z,100314.97
2023-02-13T15:10:47.052Z,100315.78
2023-02-13T15:13:37.445Z,100325.97
2023-02-13T15:16:09.364Z,100338.50
2023-02-13T15:18:46.006Z,100337.78
2023-02-13T15:21:17.414Z,100340.44
2023-02-13T15:23:49.494Z,100353.38
2023-02-13T15:26:24.763Z,100358.25
2023-02-13T15:29:05.853Z,100368.84
2023-02-13T15:31:34.858Z,100374.09
2023-02-13T15:34:01.602Z,100382.47
2023-02-13T15:36:40.645Z,100392.44
2023-02-13T15:39:10.416Z,100401.78
2023-02-13T15:41:44.239Z,100404.53
2023-02-13T15:44:18.952Z,100413.59
2023-02-13T15:46:51.442Z,100410.72
2023-02-13T15:49:21.841Z,100429.22
2023-02-13T15:51:50.538Z,100434.66
2023-02-13T15:54:28.605Z,100445.25
2023-02-13T15:56:59.152Z,100460.56
2023-02-13T15:59:36.400Z,100455.59
2023-02-13T16:02:08.141Z,100453.50
2023-02-13T16:04:35.596Z,100456.09
2023-02-13T16:07:02.109Z,100446.00
2023-02-13T16:09:35.764Z,100450.63
2023-02-13T16:12:02.109Z,100450.44
2023-02-13T16:14:30.401Z,100450.16
2023-02-13T16:17:06.146Z,100445.44
2023-02-13T16:19:50.752Z,100453.47
2023-02-13T16:22:30.274Z,100460.53
2023-02-13T16:25:11.780Z,100467.97
2023-02-13T16:27:50.452Z,100462.88
2023-02-13T16:30:25.199Z,100472.03
2023-02-13T16:32:51.926Z,100472.25
2023-02-13T16:35:30.380Z,100472.16
2023-02-13T16:38:01.743Z,100483.00
2023-02-13T16:40:31.192Z,100480.81
2023-02-13T16:43:35.457Z,100469.66
2023-02-13T16:46:19.327Z,100473.66
2023-02-13T16:48:48.178Z,100476.81
2023-02-13T16:51:16.759Z,100473.25
2023-02-13T16:53:43.259Z,100461.88
2023-02-13T16:56:11.409Z,100462.56
2023-02-13T16:58:37.891Z,100463.59
2023-02-13T17:01:05.368Z,100466.28
2023-02-13T17:03:33.025Z,100447.78
2023-02-13T17:06:03.390Z,100452.88
2023-02-13T17:08:31.695Z,100457.34
2023-02-13T17:11:03.782Z,100419.84
2023-02-13T17:13:30.486Z,100420.44
2023-02-13T17:15:58.329Z,100410.56
2023-02-13T17:18:24.823Z,100391.03
2023-02-13T17:20:51.342Z,100374.91
2023-02-13T17:23:22.806Z,100369.94
2023-02-13T17:25:51.403Z,100356.28
2023-02-13T17:28:29.236Z,100354.47
2023-02-13T17:30:58.481Z,100349.66
2023-02-13T17:33:30.544Z,100355.72
2023-02-13T17:35:57.204Z,100353.72
2023-02-13T17:38:24.285Z,100351.69
2023-02-13T17:40:51.845Z,100342.88
2023-02-13T17:43:20.763Z,100345.38
2023-02-13T17:45:48.400Z,100341.97
2023-02-13T17:48:15.372Z,100327.59
2023-02-13T17:50:41.908Z,100330.69
2023-02-13T17:53:26.304Z,100323.88
2023-02-13T17:55:53.105Z,100320.47
2023-02-13T17:58:19.585Z,100315.38
2023-02-13T18:00:46.339Z,100307.38
2023-02-13T18:03:12.810Z,100303.81
2023-02-13T18:05:39.821Z,100306.38
2023-02-13T18:08:06.329Z,100323.25
2023-02-13T18:10:35.918Z,100310.34
2023-02-13T18:13:05.983Z,100303.19
2023-02-13T18:15:40.337Z,100295.84
2023-02-13T18:18:07.034Z,100299.00
2023-02-13T18:20:33.788Z,100296.84
2023-02-13T18:23:00.231Z,100297.06
2023-02-13T18:25:26.889Z,100299.16
2023-02-13T18:27:55.248Z,100298.19
2023-02-13T18:30:21.952Z,100292.78
2023-02-13T18:32:53.460Z,100286.50
2023-02-13T18:35:20.336Z,100278.22
2023-02-13T18:37:46.757Z,100283.00
2023-02-13T18:40:15.079Z,100277.94
2023-02-13T18:42:41.630Z,100279.97
2023-02-13T18:45:08.737Z,100268.81
2023-02-13T18:47:36.746Z,100260.38
2023-02-13T18:50:03.913Z,100245.16
2023-02-13T18:52:30.339Z,100228.16
2023-02-13T18:54:56.832Z,100211.25
2023-02-13T18:57:23.280Z,100199.53
2023-02-13T18:59:49.744Z,100177.41
2023-02-13T19:02:16.215Z,100154.47
2023-02-13T19:04:42.665Z,100136.50
2023-02-13T19:07:09.098Z,100126.44
2023-02-13T19:09:40.004Z,100100.28
2023-02-13T19:12:07.679Z,100080.19
2023-02-13T19:14:34.237Z,100052.91
2023-02-13T19:17:00.823Z,100044.69
2023-02-13T19:19:27.565Z,100019.66
2023-02-13T19:21:54.046Z,100006.94
2023-02-13T19:24:23.277Z,99988.91
2023-02-13T19:26:50.917Z,99972.88
2023-02-13T19:29:17.370Z,99957.31
2023-02-13T19:31:43.954Z,99939.94
2023-02-13T19:34:10.461Z,99926.63
2023-02-13T19:36:36.982Z,99905.16
2023-02-13T19:39:06.683Z,99876.25
2023-02-13T19:41:33.322Z,99865.44
2023-02-13T19:44:01.086Z,99845.78
2023-02-13T19:46:30.190Z,99823.72
2023-02-13T19:48:57.488Z,99804.84
2023-02-13T19:51:27.786Z,99797.47
2023-02-13T19:53:58.636Z,99779.94
2023-02-13T19:56:27.413Z,99754.59
2023-02-13T19:58:53.939Z,99742.22
2023-02-13T20:01:23.271Z,99726.06
2023-02-13T20:03:50.718Z,99698.72
2023-02-13T20:06:25.825Z,99688.16
2023-02-13T20:08:53.063Z,99683.03
2023-02-13T20:11:22.295Z,99658.50
2023-02-13T20:13:53.048Z,99646.81
2023-02-13T20:16:19.482Z,99639.81
2023-02-13T20:18:46.047Z,99636.69
2023-02-13T20:21:15.053Z,99609.00
2023-02-13T20:23:42.267Z,99609.41
2023-02-13T20:26:13.719Z,99591.88
2023-02-13T20:28:41.923Z,99574.56
2023-02-13T20:31:20.282Z,99569.66
2023-02-13T20:33:47.949Z,99554.81
2023-02-13T20:36:23.274Z,99549.28
2023-02-13T20:38:52.892Z,99542.22
2023-02-13T20:41:22.309Z,99547.31
2023-02-13T20:43:49.051Z,99541.78
2023-02-13T20:46:16.562Z,99529.34
2023-02-13T20:48:45.858Z,99527.16
2023-02-13T20:51:14.935Z,99517.72
2023-02-13T20:53:42.354Z,99492.47
2023-02-13T20:56:11.731Z,99474.72
2023-02-13T20:58:38.997Z,99446.00
2023-02-13T21:01:23.177Z,99443.94
2023-02-13T21:03:53.759Z,99429.31
2023-02-13T21:06:26.296Z,99433.59
2023-02-13T21:08:53.263Z,99418.28
2023-02-13T21:11:21.146Z,99416.06
2023-02-13T21:13:48.510Z,99421.28
2023-02-13T21:16:18.677Z,99426.97
2023-02-13T21:18:48.740Z,99418.81
2023-02-13T21:21:15.677Z,99389.41
2023-02-13T21:23:42.305Z,99395.28
2023-02-13T21:26:12.796Z,99373.38
2023-02-13T21:28:40.145Z,99367.63
2023-02-13T21:31:11.510Z,99361.34
2023-02-13T21:33:38.042Z,99339.25
2023-02-13T21:36:08.509Z,99327.50
2023-02-13T21:38:35.872Z,99314.91
2023-02-13T21:41:09.305Z,99306.72
2023-02-13T21:43:37.852Z,99294.84
2023-02-13T21:46:12.169Z,99271.13
2023-02-13T21:48:40.209Z,99250.84
2023-02-13T21:51:12.464Z,99248.72
2023-02-13T21:53:39.580Z,99244.28
2023-02-13T21:56:09.334Z,99239.81
2023-02-13T21:58:37.194Z,99220.63
2023-02-13T22:01:20.438Z,99222.47
2023-02-13T22:03:51.741Z,99226.47
2023-02-13T22:06:21.970Z,99223.28
2023-02-13T22:08:49.207Z,99211.94
2023-02-13T22:11:19.042Z,99215.19
2023-02-13T22:13:45.485Z,99211.63
2023-02-13T22:16:13.871Z,99197.97
2023-02-13T22:18:45.169Z,99197.03
2023-02-13T22:21:15.232Z,99209.31
2023-02-13T22:23:43.616Z,99192.84
2023-02-13T22:26:20.865Z,99196.50
2023-02-13T22:28:47.580Z,99201.34
2023-02-13T22:31:15.082Z,99200.34
2023-02-13T22:33:42.995Z,99196.31
2023-02-13T22:36:12.287Z,99198.00
2023-02-13T22:38:40.492Z,99193.72
2023-02-13T22:41:13.161Z,99183.59
2023-02-13T22:43:41.219Z,99178.56
2023-02-13T22:46:12.551Z,99177.78
2023-02-13T22:48:40.777Z,99156.47
2023-02-13T22:51:10.013Z,99147.75
2023-02-13T22:53:38.255Z,99135.13
2023-02-13T22:56:06.654Z,99116.94
2023-02-13T22:58:33.674Z,99100.88
2023-02-13T23:01:00.688Z,99093.34
2023-02-13T23:03:27.658Z,99067.34
2023-02-13T23:05:54.107Z,99061.63
2023-02-13T23:08:20.574Z,99049.53
2023-02-13T23:11:07.172Z,99028.03
2023-02-13T23:13:33.717Z,99019.38
2023-02-13T23:16:00.749Z,99014.06
2023-02-13T23:18:27.451Z,99010.38
2023-02-13T23:20:53.875Z,99011.44
2023-02-13T23:23:21.209Z,99017.06
2023-02-13T23:25:47.658Z,99016.31
2023-02-13T23:28:14.081Z,99019.00
2023-02-13T23:30:40.564Z,99004.25
2023-02-13T23:33:07.017Z,99020.91
2023-02-13T23:35:33.454Z,99006.59
2023-02-13T23:37:59.982Z,98995.69
2023-02-13T23:40:26.626Z,99035.78
2023-02-13T23:42:56.126Z,99023.38
2023-02-13T23:45:22.532Z,99027.81
2023-02-13T23:47:49.102Z,99023.81
2023-02-13T23:50:15.642Z,99027.38
2023-02-13T23:52:42.087Z,99023.06
2023-02-13T23:55:08.567Z,99021.41
2023-02-13T23:57:40.915Z,99016.66
